createdAt,value
2018-04-14T00:00:35.715Z,55.27
2018-04-14T00:03:04.777Z,62.27
2018-04-14T00:05:33.059Z,52.20
2018-04-14T00:08:01.427Z,62.33
2018-04-14T00:10:29.705Z,54.77
2018-04-14T00:12:57.985Z,55.20
2018-04-14T00:15:26.243Z,58.42
2018-04-14T00:17:54.507Z,56.03
2018-04-14T00:20:22.795Z,56.70
2018-04-14T00:22:51.059Z,56.55
2018-04-14T00:25:19.436Z,55.13
2018-04-14T00:27:48.484Z,57.50
2018-04-14T00:30:16.842Z,55.37
2018-04-14T00:32:45.966Z,54.43
2018-04-14T00:35:14.230Z,61.30
2018-04-14T00:37:43.272Z,57.73
2018-04-14T00:40:11.543Z,56.13
2018-04-14T00:42:39.824Z,58.80
2018-04-14T00:45:08.892Z,58.07
2018-04-14T00:47:37.158Z,52.53
2018-04-14T00:50:05.440Z,52.13
2018-04-14T00:52:33.721Z,49.27
2018-04-14T00:55:01.975Z,47.87
2018-04-14T00:57:31.023Z,54.67
2018-04-14T00:59:59.301Z,50.70
2018-04-14T01:02:27.589Z,52.40
2018-04-14T01:04:55.879Z,52.40
2018-04-14T01:07:24.136Z,54.53
2018-04-14T01:09:52.406Z,52.20
2018-04-14T01:12:20.668Z,48.43
2018-04-14T01:14:48.937Z,52.70
2018-04-14T01:17:17.211Z,51.73
2018-04-14T01:19:46.252Z,54.37
2018-04-14T01:22:14.516Z,53.40
2018-04-14T01:24:43.535Z,56.27
2018-04-14T01:27:11.812Z,54.80
2018-04-14T01:29:40.881Z,56.50
2018-04-14T01:32:09.152Z,54.93
2018-04-14T01:34:37.416Z,52.63
2018-04-14T01:37:05.691Z,53.43
2018-04-14T01:39:34.714Z,54.60
2018-04-14T01:42:03.001Z,52.13
2018-04-14T01:44:31.278Z,53.23
2018-04-14T01:47:00.316Z,55.90
2018-04-14T01:49:28.607Z,48.77
2018-04-14T01:51:56.889Z,51.13
2018-04-14T01:54:25.146Z,53.73
2018-04-14T01:56:55.110Z,50.90
2018-04-14T01:59:23.376Z,48.77
2018-04-14T02:01:51.635Z,42.13
2018-04-14T02:04:19.894Z,38.00
2018-04-14T02:06:48.192Z,39.27
2018-04-14T02:09:16.453Z,36.07
2018-04-14T02:11:44.719Z,30.93
2018-04-14T02:14:13.743Z,34.40
2018-04-14T02:16:42.029Z,30.87
2018-04-14T02:19:10.304Z,28.50
2018-04-14T02:21:39.335Z,31.13
2018-04-14T02:24:07.610Z,33.80
2018-04-14T02:26:35.883Z,34.50
2018-04-14T02:29:04.925Z,34.60
2018-04-14T02:31:33.226Z,37.93
2018-04-14T02:34:01.492Z,39.50
2018-04-14T02:36:29.765Z,41.13
2018-04-14T02:38:58.783Z,44.27
2018-04-14T02:41:27.061Z,51.92
2018-04-14T02:43:56.091Z,62.20
2018-04-14T02:46:24.358Z,60.23
2018-04-14T02:48:53.403Z,51.13
2018-04-14T02:51:21.684Z,54.30
2018-04-14T02:53:49.946Z,57.60
2018-04-14T02:56:19.004Z,56.97
2018-04-14T02:58:47.268Z,54.72
2018-04-14T03:01:15.528Z,56.67
2018-04-14T03:03:44.584Z,56.55
2018-04-14T03:06:12.857Z,56.03
2018-04-14T03:08:41.128Z,56.22
2018-04-14T03:11:10.183Z,56.15
2018-04-14T03:13:38.466Z,55.63
2018-04-14T03:16:06.716Z,53.97
2018-04-14T03:18:35.760Z,56.40
2018-04-14T03:21:04.016Z,57.13
2018-04-14T03:23:32.284Z,63.55
2018-04-14T03:26:00.581Z,60.07
2018-04-14T03:28:29.603Z,68.95
2018-04-14T03:30:57.891Z,65.53
2018-04-14T03:33:26.963Z,64.60
2018-04-14T03:35:55.266Z,72.00
2018-04-14T03:38:23.540Z,71.60
2018-04-14T03:40:51.816Z,71.73
2018-04-14T03:43:20.071Z,66.20
2018-04-14T03:45:48.361Z,68.95
2018-04-14T03:48:16.658Z,72.93
2018-04-14T03:50:45.686Z,77.12
2018-04-14T03:53:13.965Z,75.75
2018-04-14T03:55:42.256Z,79.28
2018-04-14T03:58:10.559Z,76.37
2018-04-14T04:00:38.819Z,81.05
2018-04-14T04:03:07.859Z,83.95
2018-04-14T04:05:36.127Z,86.85
2018-04-14T04:08:04.393Z,90.03
2018-04-14T04:10:33.433Z,84.62
2018-04-14T04:13:01.717Z,87.30
2018-04-14T04:15:29.980Z,87.75
2018-04-14T04:17:58.289Z,82.35
2018-04-14T04:20:56.747Z,90.97
2018-04-14T04:23:42.656Z,86.72
2018-04-14T04:26:10.936Z,94.62
2018-04-14T04:28:39.207Z,87.07
2018-04-14T04:31:08.303Z,97.22
2018-04-14T04:33:36.568Z,94.10
2018-04-14T04:36:04.836Z,96.15
2018-04-14T04:38:33.107Z,105.90
2018-04-14T04:41:01.415Z,97.28
2018-04-14T04:43:29.681Z,100.50
2018-04-14T04:45:57.966Z,103.93
2018-04-14T04:48:26.328Z,95.68
2018-04-14T04:50:54.593Z,99.20
2018-04-14T04:53:23.636Z,97.70
2018-04-14T04:55:51.897Z,94.95
2018-04-14T04:58:20.925Z,96.20
2018-04-14T05:00:49.216Z,105.78
2018-04-14T05:03:17.479Z,109.17
2018-04-14T05:05:46.534Z,111.10
2018-04-14T05:08:14.806Z,109.03
2018-04-14T05:10:43.072Z,103.03
2018-04-14T05:13:12.115Z,106.13
2018-04-14T05:15:40.393Z,107.15
2018-04-14T05:18:08.680Z,106.10
2018-04-14T05:20:36.935Z,105.75
2018-04-14T05:23:05.993Z,110.53
2018-04-14T05:25:35.265Z,108.07
2018-04-14T05:28:04.299Z,104.05
2018-04-14T05:30:32.583Z,109.60
2018-04-14T05:33:00.862Z,105.53
2018-04-14T05:35:29.144Z,111.15
2018-04-14T05:37:58.196Z,112.45
2018-04-14T05:40:26.489Z,105.28
2018-04-14T05:42:54.775Z,102.28
2018-04-14T05:45:23.067Z,97.95
2018-04-14T05:47:51.330Z,110.78
2018-04-14T05:50:19.587Z,101.03
2018-04-14T05:52:48.632Z,98.82
2018-04-14T05:55:16.892Z,100.77
2018-04-14T05:57:45.923Z,95.97
2018-04-14T06:00:14.257Z,92.43
2018-04-14T06:02:42.483Z,90.63
2018-04-14T06:05:11.521Z,93.93
2018-04-14T06:07:39.819Z,86.93
2018-04-14T06:10:08.084Z,93.63
2018-04-14T06:12:36.381Z,96.47
2018-04-14T06:15:04.655Z,93.78
2018-04-14T06:17:33.692Z,88.90
2018-04-14T06:20:01.953Z,87.47
2018-04-14T06:22:30.995Z,90.93
2018-04-14T06:24:59.256Z,86.53
2018-04-14T06:27:27.515Z,84.83
2018-04-14T06:29:55.802Z,86.18
2018-04-14T06:32:24.064Z,84.57
2018-04-14T06:34:52.321Z,80.13
2018-04-14T06:37:20.604Z,81.97
2018-04-14T06:39:49.653Z,80.90
2018-04-14T06:42:17.912Z,83.33
2018-04-14T06:44:46.180Z,75.00
2018-04-14T06:47:15.206Z,76.77
2018-04-14T06:49:44.246Z,74.97
2018-04-14T06:52:12.525Z,68.77
2018-04-14T06:54:40.809Z,68.63
2018-04-14T06:57:09.084Z,68.30
2018-04-14T06:59:37.364Z,66.13
2018-04-14T07:02:06.387Z,59.20
2018-04-14T07:04:34.667Z,56.97
2018-04-14T07:07:03.700Z,57.37
2018-04-14T07:09:31.960Z,57.87
2018-04-14T07:12:00.994Z,63.37
2018-04-14T07:14:29.276Z,60.90
2018-04-14T07:16:57.548Z,62.30
2018-04-14T07:19:25.954Z,62.63
2018-04-14T07:21:54.217Z,66.93
2018-04-14T07:24:23.262Z,64.07
2018-04-14T07:26:51.518Z,60.73
2018-04-14T07:29:20.554Z,62.83
2018-04-14T07:31:48.803Z,66.57
2018-04-14T07:34:17.069Z,68.90
2018-04-14T07:36:45.353Z,66.80
2018-04-14T07:39:13.633Z,69.03
2018-04-14T07:41:41.912Z,65.97
2018-04-14T07:44:10.190Z,70.17
2018-04-14T07:46:38.465Z,70.43
2018-04-14T07:49:07.500Z,75.43
2018-04-14T07:51:35.803Z,71.47
2018-04-14T07:54:04.083Z,65.40
2018-04-14T07:56:33.064Z,68.78
2018-04-14T07:59:01.352Z,72.47
2018-04-14T08:01:30.391Z,63.70
2018-04-14T08:03:58.670Z,66.70
2018-04-14T08:06:26.958Z,60.70
2018-04-14T08:08:55.221Z,51.30
2018-04-14T08:11:24.240Z,55.37
2018-04-14T08:13:52.511Z,55.77
2018-04-14T08:16:21.540Z,49.93
2018-04-14T08:18:49.814Z,52.87
2018-04-14T08:21:18.083Z,48.70
2018-04-14T08:23:46.339Z,49.73
2018-04-14T08:26:14.602Z,50.47
2018-04-14T08:28:42.870Z,44.90
2018-04-14T08:31:11.905Z,47.87
2018-04-14T08:33:40.187Z,41.03
2018-04-14T08:36:08.481Z,46.90
2018-04-14T08:38:36.751Z,47.87
2018-04-14T08:41:05.774Z,49.07
2018-04-14T08:43:34.107Z,48.50
2018-04-14T08:46:02.356Z,47.43
2018-04-14T08:48:30.599Z,45.50
2018-04-14T08:50:58.890Z,46.27
2018-04-14T08:53:27.145Z,46.90
2018-04-14T08:55:55.421Z,49.33
2018-04-14T08:58:23.699Z,44.57
2018-04-14T09:00:52.015Z,45.43
2018-04-14T09:03:20.300Z,45.90
2018-04-14T09:05:48.579Z,48.70
2018-04-14T09:08:16.836Z,50.87
2018-04-14T09:10:45.877Z,51.57
2018-04-14T09:13:14.162Z,52.40
2018-04-14T09:15:42.456Z,45.70
2018-04-14T09:18:10.728Z,43.33
2018-04-14T09:20:39.832Z,47.03
2018-04-14T09:23:08.864Z,47.67
2018-04-14T09:25:37.133Z,47.87
2018-04-14T09:28:06.203Z,46.37
2018-04-14T09:30:34.465Z,46.70
2018-04-14T09:33:02.724Z,41.85
2018-04-14T09:35:31.771Z,42.67
2018-04-14T09:38:01.441Z,44.50
2018-04-14T09:40:29.809Z,43.23
2018-04-14T09:42:58.146Z,43.85
2018-04-14T09:45:26.379Z,43.37
2018-04-14T09:47:54.632Z,43.73
2018-04-14T09:50:22.905Z,46.90
2018-04-14T09:52:51.933Z,43.83
2018-04-14T09:55:20.183Z,44.20
2018-04-14T09:57:48.464Z,44.57
2018-04-14T10:00:22.228Z,49.27
2018-04-14T10:02:50.508Z,45.33
2018-04-14T10:05:19.528Z,48.73
2018-04-14T10:07:47.813Z,46.57
2018-04-14T10:10:16.843Z,49.33
2018-04-14T10:12:45.118Z,49.53
2018-04-14T10:15:13.379Z,52.27
2018-04-14T10:17:41.659Z,56.83
2018-04-14T10:20:09.933Z,49.97
2018-04-14T10:22:38.244Z,53.80
2018-04-14T10:25:06.526Z,51.63
2018-04-14T10:27:34.948Z,51.57
2018-04-14T10:30:03.251Z,56.13
2018-04-14T10:32:31.542Z,52.23
2018-04-14T10:34:59.795Z,54.73
2018-04-14T10:37:28.111Z,56.53
2018-04-14T10:39:56.380Z,56.53
2018-04-14T10:42:25.411Z,53.95
2018-04-14T10:44:53.705Z,52.20
2018-04-14T10:47:22.737Z,52.63
2018-04-14T10:49:51.010Z,55.60
2018-04-14T10:52:19.281Z,53.42
2018-04-14T10:54:48.320Z,54.63
2018-04-14T10:57:16.598Z,52.97
2018-04-14T10:59:44.874Z,52.63
2018-04-14T11:02:13.940Z,50.70
2018-04-14T11:04:42.467Z,50.30
2018-04-14T11:07:11.532Z,51.13
2018-04-14T11:09:39.869Z,50.80
2018-04-14T11:12:08.904Z,49.67
2018-04-14T11:14:37.168Z,49.17
2018-04-14T11:17:07.033Z,52.83
2018-04-14T11:19:35.339Z,51.00
2018-04-14T11:22:03.595Z,61.13
2018-04-14T11:24:31.903Z,121.27
2018-04-14T11:27:00.164Z,67.70
2018-04-14T11:29:28.444Z,142.83
2018-04-14T11:31:57.495Z,229.40
2018-04-14T11:34:25.772Z,133.13
2018-04-14T11:36:54.077Z,55.93
2018-04-14T11:39:22.343Z,50.30
2018-04-14T11:41:50.618Z,128.87
2018-04-14T11:44:19.667Z,182.93
2018-04-14T11:46:47.931Z,72.17
2018-04-14T11:49:16.203Z,60.73
2018-04-14T11:51:45.225Z,65.90
2018-04-14T11:54:13.503Z,53.70
2018-04-14T11:56:42.533Z,51.90
2018-04-14T11:59:10.824Z,48.50
2018-04-14T12:01:39.126Z,49.47
2018-04-14T12:04:07.385Z,50.83
2018-04-14T12:06:36.412Z,45.90
2018-04-14T12:09:04.699Z,43.77
2018-04-14T12:11:33.002Z,394.50
2018-04-14T12:14:01.305Z,131.93
2018-04-14T12:16:31.951Z,70.60
2018-04-14T12:19:00.207Z,84.27
2018-04-14T12:21:28.491Z,178.90
2018-04-14T12:23:57.524Z,91.70
2018-04-14T12:26:25.778Z,59.47
2018-04-14T12:28:54.807Z,49.70
2018-04-14T12:31:23.075Z,46.50
2018-04-14T12:36:52.276Z,49.53
2018-04-14T12:39:20.851Z,150.80
2018-04-14T12:41:49.166Z,177.33
2018-04-14T12:44:17.399Z,96.37
2018-04-14T12:46:46.435Z,57.40
2018-04-14T12:49:14.689Z,49.13
2018-04-14T12:51:43.732Z,48.57
2018-04-14T12:54:12.463Z,47.43
2018-04-14T12:56:40.850Z,46.07
2018-04-14T12:59:09.119Z,42.33
2018-04-14T13:01:37.394Z,45.33
2018-04-14T13:04:05.651Z,45.03
2018-04-14T13:06:33.915Z,45.87
2018-04-14T13:09:02.185Z,45.97
2018-04-14T13:11:30.444Z,43.87
2018-04-14T13:13:58.743Z,45.23
2018-04-14T13:16:26.991Z,45.67
2018-04-14T13:18:55.250Z,44.20
2018-04-14T13:21:23.511Z,42.57
2018-04-14T13:23:51.777Z,70.97
2018-04-14T13:26:20.821Z,56.27
2018-04-14T13:28:49.088Z,61.50
2018-04-14T13:31:18.107Z,65.40
2018-04-14T13:33:46.382Z,52.10
2018-04-14T13:36:15.503Z,45.20
2018-04-14T13:38:44.803Z,43.87
2018-04-14T13:41:14.850Z,73.93
2018-04-14T13:43:43.948Z,47.70
2018-04-14T13:46:12.605Z,73.13
2018-04-14T13:48:40.898Z,46.67
2018-04-14T13:51:09.196Z,51.87
2018-04-14T13:53:37.456Z,45.07
2018-04-14T13:56:05.721Z,43.20
2018-04-14T13:58:34.010Z,42.17
2018-04-14T14:01:02.359Z,39.13
2018-04-14T14:03:31.518Z,41.67
2018-04-14T14:05:59.824Z,41.23
2018-04-14T14:08:28.089Z,40.73
2018-04-14T14:10:56.339Z,40.53
2018-04-14T14:13:24.632Z,40.80
2018-04-14T14:15:52.889Z,38.30
2018-04-14T14:18:21.356Z,40.17
2018-04-14T14:20:49.631Z,42.97
2018-04-14T14:23:17.935Z,41.20
2018-04-14T14:25:46.199Z,40.70
2018-04-14T14:28:15.451Z,43.87
2018-04-14T14:30:43.700Z,41.20
2018-04-14T14:33:11.963Z,45.83
2018-04-14T14:35:40.253Z,42.53
2018-04-14T14:38:08.520Z,39.47
2018-04-14T14:40:36.871Z,36.70
2018-04-14T14:43:05.912Z,34.23
2018-04-14T14:45:34.172Z,41.13
2018-04-14T14:48:03.191Z,41.20
2018-04-14T14:50:31.464Z,43.50
2018-04-14T14:53:00.511Z,43.70
2018-04-14T14:55:28.783Z,38.30
2018-04-14T14:57:57.064Z,39.80
2018-04-14T15:00:25.362Z,40.97
2018-04-14T15:02:53.614Z,37.90
2018-04-14T15:05:22.669Z,36.10
2018-04-14T15:07:51.948Z,36.20
2018-04-14T15:10:20.986Z,42.63
2018-04-14T15:12:50.980Z,40.47
2018-04-14T15:15:19.313Z,44.07
2018-04-14T15:17:47.568Z,41.83
2018-04-14T15:20:16.636Z,39.37
2018-04-14T15:22:45.027Z,35.07
2018-04-14T15:25:13.329Z,39.03
2018-04-14T15:27:41.564Z,37.30
2018-04-14T15:30:09.830Z,43.23
2018-04-14T15:32:38.081Z,36.43
2018-04-14T15:35:06.359Z,34.13
2018-04-14T15:37:34.616Z,36.70
2018-04-14T15:40:03.639Z,35.87
2018-04-14T15:42:31.936Z,34.70
2018-04-14T15:45:00.199Z,35.07
2018-04-14T15:47:29.231Z,38.07
2018-04-14T15:49:57.499Z,36.83
2018-04-14T15:52:26.524Z,35.70
2018-04-14T15:54:54.780Z,34.07
2018-04-14T15:57:23.056Z,32.50
2018-04-14T15:59:51.312Z,34.23
2018-04-14T16:02:19.595Z,31.80
2018-04-14T16:04:47.880Z,35.17
2018-04-14T16:07:16.128Z,34.53
2018-04-14T16:09:44.398Z,30.27
2018-04-14T16:12:12.667Z,31.27
2018-04-14T16:14:40.928Z,32.83
2018-04-14T16:17:09.280Z,33.50
2018-04-14T16:19:37.488Z,32.73
2018-04-14T16:22:06.508Z,31.27
2018-04-14T16:24:34.764Z,32.90
2018-04-14T16:27:03.837Z,32.40
2018-04-14T16:29:32.105Z,31.73
2018-04-14T16:32:00.383Z,33.73
2018-04-14T16:34:29.411Z,35.87
2018-04-14T16:36:57.683Z,32.23
2018-04-14T16:39:26.725Z,34.57
2018-04-14T16:41:54.996Z,32.63
2018-04-14T16:44:23.251Z,35.87
2018-04-14T16:46:52.343Z,31.57
2018-04-14T16:49:20.686Z,32.13
2018-04-14T16:51:50.841Z,33.20
2018-04-14T16:54:19.099Z,31.20
2018-04-14T16:56:47.380Z,32.70
2018-04-14T16:59:16.417Z,33.40
2018-04-14T17:01:44.723Z,34.47
2018-04-14T17:04:13.003Z,35.60
2018-04-14T17:06:41.279Z,37.20
2018-04-14T17:09:09.573Z,33.40
2018-04-14T17:11:37.858Z,34.38
2018-04-14T17:14:06.116Z,33.90
2018-04-14T17:16:35.134Z,29.07
2018-04-14T17:19:04.212Z,31.57
2018-04-14T17:21:32.494Z,30.53
2018-04-14T17:24:01.517Z,34.53
2018-04-14T17:26:29.829Z,32.03
2018-04-14T17:28:58.891Z,32.37
2018-04-14T17:31:27.148Z,35.73
2018-04-14T17:33:55.445Z,33.90
2018-04-14T17:36:23.729Z,34.90
2018-04-14T17:38:52.667Z,35.50
2018-04-14T17:41:20.971Z,38.37
2018-04-14T17:43:49.242Z,33.87
2018-04-14T17:46:17.504Z,33.90
2018-04-14T17:48:45.773Z,31.20
2018-04-14T17:51:14.815Z,34.00
2018-04-14T17:53:43.106Z,33.23
2018-04-14T17:56:12.118Z,32.27
2018-04-14T17:58:40.388Z,33.90
2018-04-14T18:01:08.645Z,36.97
2018-04-14T18:03:37.721Z,34.37
2018-04-14T18:06:05.980Z,29.42
2018-04-14T18:08:34.237Z,32.50
2018-04-14T18:11:03.276Z,31.50
2018-04-14T18:13:31.573Z,33.27
2018-04-14T18:15:59.827Z,29.90
2018-04-14T18:18:28.104Z,32.30
2018-04-14T18:20:57.144Z,35.13
2018-04-14T18:23:25.418Z,37.90
2018-04-14T18:25:54.459Z,35.97
2018-04-14T18:28:22.731Z,34.07
2018-04-14T18:30:50.991Z,30.33
2018-04-14T18:33:20.032Z,31.57
2018-04-14T18:35:48.283Z,33.57
2018-04-14T18:38:17.323Z,32.90
2018-04-14T18:40:45.599Z,37.33
2018-04-14T18:43:14.654Z,35.87
2018-04-14T18:45:43.033Z,34.13
2018-04-14T18:48:11.342Z,31.23
2018-04-14T18:50:39.664Z,35.23
2018-04-14T18:53:07.926Z,30.75
2018-04-14T18:55:36.203Z,38.77
2018-04-14T18:58:04.489Z,46.70
2018-04-14T19:00:32.740Z,41.97
2018-04-14T19:03:01.012Z,34.70
2018-04-14T19:05:30.048Z,38.37
2018-04-14T19:07:58.321Z,34.30
2018-04-14T19:10:27.368Z,35.53
2018-04-14T19:12:55.887Z,30.90
2018-04-14T19:15:24.148Z,29.13
2018-04-14T19:17:52.498Z,33.55
2018-04-14T19:20:20.737Z,35.23
2018-04-14T19:22:49.009Z,33.30
2018-04-14T19:25:17.280Z,34.57
2018-04-14T19:27:46.303Z,34.13
2018-04-14T19:30:15.374Z,34.90
2018-04-14T19:32:44.469Z,38.37
2018-04-14T19:35:12.747Z,34.97
2018-04-14T19:37:41.066Z,35.27
2018-04-14T19:40:09.343Z,36.77
2018-04-14T19:42:37.612Z,31.93
2018-04-14T19:45:05.877Z,31.27
2018-04-14T19:47:34.178Z,31.50
2018-04-14T19:50:02.440Z,33.43
2018-04-14T19:52:30.702Z,36.80
2018-04-14T19:54:58.982Z,35.50
2018-04-14T19:57:27.256Z,39.10
2018-04-14T19:59:55.524Z,36.03
2018-04-14T20:02:23.813Z,37.10
2018-04-14T20:04:52.087Z,37.77
2018-04-14T20:07:20.413Z,39.60
2018-04-14T20:09:48.681Z,37.67
2018-04-14T20:12:16.949Z,36.80
2018-04-14T20:14:45.991Z,37.30
2018-04-14T20:17:14.276Z,36.73
2018-04-14T20:19:42.602Z,39.65
2018-04-14T20:22:10.815Z,39.53
2018-04-14T20:24:39.929Z,42.78
2018-04-14T20:27:08.948Z,39.33
2018-04-14T20:29:37.211Z,35.60
2018-04-14T20:32:06.268Z,40.13
2018-04-14T20:34:34.542Z,37.37
2018-04-14T20:37:02.817Z,39.23
2018-04-14T20:39:31.856Z,38.73
2018-04-14T20:42:00.125Z,39.97
2018-04-14T20:44:28.399Z,42.57
2018-04-14T20:46:57.520Z,40.40
2018-04-14T20:49:25.779Z,41.43
2018-04-14T20:51:54.054Z,41.93
2018-04-14T20:54:22.323Z,40.43
2018-04-14T20:56:50.619Z,45.73
2018-04-14T20:59:19.407Z,45.95
2018-04-14T21:01:47.684Z,44.77
2018-04-14T21:04:15.954Z,44.37
2018-04-14T21:06:44.990Z,46.90
2018-04-14T21:09:13.291Z,43.53
2018-04-14T21:11:41.556Z,46.80
2018-04-14T21:14:09.832Z,43.97
2018-04-14T21:16:38.883Z,44.83
2018-04-14T21:19:07.145Z,47.27
2018-04-14T21:21:35.406Z,45.57
2018-04-14T21:24:04.457Z,47.73
2018-04-14T21:26:32.712Z,52.33
2018-04-14T21:29:01.738Z,52.07
2018-04-14T21:31:30.035Z,48.83
2018-04-14T21:33:58.292Z,53.67
2018-04-14T21:36:27.425Z,55.73
2018-04-14T21:38:55.841Z,51.57
2018-04-14T21:41:24.129Z,53.43
2018-04-14T21:43:52.428Z,54.20
2018-04-14T21:46:20.714Z,55.13
2018-04-14T21:48:48.967Z,52.63
2018-04-14T21:51:17.994Z,55.03
2018-04-14T21:53:46.286Z,60.40
2018-04-14T21:56:14.554Z,56.55
2018-04-14T21:58:44.197Z,56.27
2018-04-14T22:01:15.147Z,58.23
2018-04-14T22:03:43.415Z,56.60
2018-04-14T22:06:11.800Z,57.77
2018-04-14T22:08:40.853Z,52.80
2018-04-14T22:11:09.122Z,53.53
2018-04-14T22:13:37.379Z,54.23
2018-04-14T22:16:05.668Z,57.67
2018-04-14T22:18:33.933Z,59.47
2018-04-14T22:21:02.190Z,57.23
2018-04-14T22:23:30.481Z,61.22
2018-04-14T22:25:58.744Z,59.07
2018-04-14T22:28:27.767Z,57.77
2018-04-14T22:30:56.045Z,56.57
2018-04-14T22:33:25.088Z,58.80
2018-04-14T22:35:53.349Z,56.43
2018-04-14T22:38:21.662Z,56.17
2018-04-14T22:40:49.928Z,61.83
2018-04-14T22:43:18.192Z,59.33
2018-04-14T22:45:46.486Z,58.07
2018-04-14T22:48:14.757Z,59.53
2018-04-14T22:50:43.035Z,59.90
2018-04-14T22:53:11.322Z,60.33
2018-04-14T22:55:39.599Z,56.80
2018-04-14T22:58:07.853Z,62.77
2018-04-14T23:00:36.160Z,62.77
2018-04-14T23:03:04.419Z,57.77
2018-04-14T23:05:33.439Z,59.77
2018-04-14T23:08:02.483Z,56.97
2018-04-14T23:10:30.751Z,60.73
2018-04-14T23:12:59.885Z,57.70
2018-04-14T23:15:28.186Z,58.50
2018-04-14T23:17:56.443Z,53.13
2018-04-14T23:20:24.741Z,51.17
2018-04-14T23:22:53.037Z,44.00
2018-04-14T23:25:21.309Z,41.00
2018-04-14T23:27:49.584Z,41.73
2018-04-14T23:30:17.860Z,33.10
2018-04-14T23:32:46.945Z,35.80
2018-04-14T23:35:15.200Z,38.10
2018-04-14T23:37:43.488Z,31.57
2018-04-14T23:40:11.946Z,33.30
2018-04-14T23:42:41.007Z,30.23
2018-04-14T23:45:09.298Z,27.57
2018-04-14T23:47:37.549Z,27.00
2018-04-14T23:50:05.819Z,25.80
2018-04-14T23:52:34.905Z,26.87
2018-04-14T23:55:03.175Z,27.97
2018-04-14T23:57:31.441Z,27.20
2018-04-14T23:59:59.742Z,23.50
